Thursday, May 24, 2018, 5:44 AM EDT
Back to Local

KFRG, Farmingdale Republic Airport

Location: Farmingdale, NY, United States Lat: 40.733
Local Time: 5:44 AM EDT ( 9:44 GMT) Lon: -73.417
Time Zone: US/Eastern Elev: 82 ft

Show me the last for .
Show Decoded

2018-05-24 04:53 METAR KFRG 240853Z 00000KT 10SM CLR 17/10 A3003 RMK AO2 SLP170 T01720100 53009 $
                 =
2018-05-24 03:53 METAR KFRG 240753Z 00000KT 10SM CLR 18/10 A3002 RMK AO2 SLP166 T01780100 $ =
2018-05-24 02:53 METAR KFRG 240653Z 33006KT 10SM CLR 19/10 A3002 RMK AO2 SLP164 T01890100 $ =
2018-05-24 01:53 METAR KFRG 240553Z 34004KT 10SM CLR 20/10 A3001 RMK AO2 SLP161 T02000100 10250
                 20200 51008 $ =
2018-05-24 00:53 METAR KFRG 240453Z 34007KT 10SM CLR 21/10 A3001 RMK AO2 SLP161 T02110100
                 402670139 $ =
2018-05-23 23:53 METAR KFRG 240353Z 32007KT 10SM CLR 21/11 A3000 RMK AO2 SLP158 T02110106 $ =
2018-05-23 22:53 METAR KFRG 240253Z 30004KT 10SM CLR 21/12 A2999 RMK AO2 SLP153 T02110117 $ =
2018-05-23 21:53 METAR KFRG 240153Z 28004KT 10SM 22/12 A2998 RMK AO2 SLP151 T02170117 $ =
2018-05-23 20:53 METAR KFRG 240053Z 26003KT 10SM CLR 23/12 A2996 RMK AO2 SLP146 T02280122 =
2018-05-23 19:53 METAR KFRG 232353Z 28003KT 10SM CLR 25/11 A2995 RMK AO2 SLP141 T02500111 10267
                 20239 53009 =
2018-05-23 18:53 METAR KFRG 232253Z 32004KT 10SM CLR 26/11 A2993 RMK AO2 SLP135 T02610111 =
2018-05-23 17:53 METAR KFRG 232153Z 32009KT 10SM CLR 27/10 A2992 RMK AO2 SLP132 T02670100 =
2018-05-23 16:53 METAR KFRG 232053Z VRB04G15KT 10SM CLR 26/13 A2992 RMK AO2 SLP131 T02610128
                 56004 =
2018-05-23 15:53 METAR KFRG 231953Z 31006KT 10SM CLR 26/13 A2992 RMK AO2 SLP132 T02610128 =
2018-05-23 14:53 METAR KFRG 231853Z VRB06KT 10SM CLR 24/14 A2993 RMK AO2 SLP134 T02440139 =
2018-05-23 13:53 METAR KFRG 231753Z 31008KT 10SM CLR 24/15 A2993 RMK AO2 SLP136 60000 T02440150
                 10244 20150 50000 =
2018-05-23 12:53 METAR KFRG 231653Z 33011KT 10SM FEW027 23/16 A2994 RMK AO2 SLP137 T02280156 =
2018-05-23 12:13 METAR KFRG 231613Z 33012KT 10SM SCT023 SCT035 23/16 A2994 RMK AO2 T02280161 =
2018-05-23 12:05 METAR KFRG 231605Z 31010G14KT 10SM BKN022 BKN035 BKN080 22/16 A2994 RMK AO2
                 T02170161 =
2018-05-23 11:53 METAR KFRG 231553Z 36008KT 10SM SCT020 BKN080 22/16 A2994 RMK AO2 RAE26 SLP139
                 P0000 T02170161 =
2018-05-23 11:34 METAR KFRG 231534Z 35010KT 310V010 10SM SCT019 21/16 A2994 RMK AO2 RAE26 P0000
                 T02110161 =
2018-05-23 10:53 METAR KFRG 231453Z 00000KT 3SM RA SCT016 BKN022 19/17 A2993 RMK AO2 SFC VIS 7
                 SLP135 P0000 60000 T01890167 51004 =
2018-05-23 10:29 METAR KFRG 231429Z 18003KT 3SM RA FEW008 BKN015 OVC019 17/16 A2994 RMK AO2 SFC
                 VIS 5 P0000 T01720156 =
2018-05-23 09:53 METAR KFRG 231353Z 00000KT 1 3/4SM RA OVC006 17/16 A2993 RMK AO2 SFC VIS 5 CIG
                 006V009 SLP134 P0000 T01670156 =
2018-05-23 09:05 METAR KFRG 231305Z 21004KT 1 3/4SM RA OVC005 17/16 A2993 RMK AO2 SFC VIS 5 P0000
                 T01670156 =
2018-05-23 08:53 METAR KFRG 231253Z 18004KT 1 3/4SM RA OVC004 16/16 A2993 RMK AO2 SFC VIS 5
                 SLP134 P0000 T01610156 =
2018-05-23 08:31 METAR KFRG 231231Z 22003KT 1 3/4SM RA OVC005 16/15 A2993 RMK AO2 SFC VIS 4 P0000
                 T01610150 =
2018-05-23 07:53 METAR KFRG 231153Z 00000KT 1 3/4SM RA OVC004 15/14 A2992 RMK AO2 SFC VIS 4
                 SLP131 P0000 60004 70015 T01500144 10150 20139 55001 =
2018-05-23 07:32 METAR KFRG 231132Z 24004KT 2SM RA OVC004 15/14 A2992 RMK AO2 SFC VIS 5 P0000
                 T01500144 =
2018-05-23 06:53 METAR KFRG 231053Z 00000KT 2SM RA OVC005 14/14 A2991 RMK AO2 SFC VIS 5 SLP126
                 P0000 T01440144 =
2018-05-23 06:25 METAR KFRG 231025Z AUTO 16003KT 2SM RA OVC005 14/14 A2989 RMK AO2 SFC VIS 5
                 P0000 T01390139 =
2018-05-23 05:53 METAR KFRG 230953Z AUTO 00000KT 2SM RA OVC004 14/13 A2990 RMK AO2 SFC VIS 8
                 SLP125 P0002 T01440133 =

Support USWX by starting your Amazon purchase here.